createdAt,value
2022-12-20T00:01:25.443Z,2.05
2022-12-20T00:03:54.133Z,1.88
2022-12-20T00:06:22.415Z,1.58
2022-12-20T00:08:57.725Z,1.17
2022-12-20T00:11:24.775Z,2.45
2022-12-20T00:13:51.988Z,2.50
2022-12-20T00:16:21.406Z,1.75
2022-12-20T00:18:54.667Z,3.13
2022-12-20T00:21:21.809Z,2.80
2022-12-20T00:23:49.029Z,1.13
2022-12-20T00:26:18.534Z,1.23
2022-12-20T00:28:46.456Z,2.58
2022-12-20T00:31:15.658Z,1.95
2022-12-20T00:33:46.525Z,2.95
2022-12-20T00:36:14.610Z,2.80
2022-12-20T00:38:41.926Z,1.70
2022-12-20T00:41:11.815Z,1.63
2022-12-20T00:43:39.606Z,2.20
2022-12-20T00:46:08.187Z,1.65
2022-12-20T00:48:35.768Z,2.75
2022-12-20T00:51:06.689Z,1.58
2022-12-20T00:53:35.150Z,1.85
2022-12-20T00:56:02.312Z,1.63
2022-12-20T00:58:29.326Z,2.90
2022-12-20T01:00:57.495Z,3.13
2022-12-20T01:03:25.532Z,1.20
2022-12-20T01:05:53.415Z,2.85
2022-12-20T01:08:21.029Z,2.15
2022-12-20T01:10:58.339Z,2.33
2022-12-20T01:13:25.235Z,1.52
2022-12-20T01:15:52.089Z,1.67
2022-12-20T01:18:18.996Z,3.28
2022-12-20T01:20:46.066Z,2.28
2022-12-20T01:23:13.176Z,2.75
2022-12-20T01:25:40.540Z,2.70
2022-12-20T01:28:07.592Z,2.25
2022-12-20T01:30:34.525Z,2.97
2022-12-20T01:33:04.589Z,3.40
2022-12-20T01:35:31.421Z,2.72
2022-12-20T01:37:58.265Z,3.08
2022-12-20T01:40:24.989Z,2.45
2022-12-20T01:42:51.828Z,3.50
2022-12-20T01:45:27.043Z,2.60
2022-12-20T01:47:54.195Z,3.92
2022-12-20T01:50:21.879Z,2.17
2022-12-20T01:52:49.458Z,2.72
2022-12-20T01:55:28.227Z,1.80
2022-12-20T01:58:03.524Z,1.50
2022-12-20T02:00:30.589Z,3.20
2022-12-20T02:03:01.475Z,2.90
2022-12-20T02:05:29.764Z,1.27
2022-12-20T02:07:57.661Z,3.80
2022-12-20T02:10:35.535Z,2.15
2022-12-20T02:13:13.090Z,3.40
2022-12-20T02:15:58.189Z,3.20
2022-12-20T02:18:46.412Z,1.83
2022-12-20T02:21:29.781Z,3.30
2022-12-20T02:24:18.397Z,0.88
2022-12-20T02:27:28.538Z,2.38
2022-12-20T02:30:07.716Z,2.67
2022-12-20T02:32:43.211Z,3.40
2022-12-20T02:35:14.269Z,2.05
2022-12-20T02:37:52.257Z,2.47
2022-12-20T02:40:23.902Z,2.25
2022-12-20T02:42:55.860Z,3.00
2022-12-20T02:45:28.169Z,2.80
2022-12-20T02:48:03.406Z,2.70
2022-12-20T02:50:40.572Z,1.83
2022-12-20T02:53:08.910Z,3.63
2022-12-20T02:55:47.951Z,1.90
2022-12-20T02:58:37.122Z,0.95
2022-12-20T03:01:11.723Z,2.88
2022-12-20T03:03:38.773Z,3.80
2022-12-20T03:06:06.556Z,2.72
2022-12-20T03:08:33.512Z,2.47
2022-12-20T03:11:01.052Z,2.90
2022-12-20T03:13:30.234Z,3.15
2022-12-20T03:16:04.571Z,1.90
2022-12-20T03:18:31.603Z,2.25
2022-12-20T03:20:58.477Z,3.63
2022-12-20T03:23:25.518Z,2.35
2022-12-20T03:25:52.632Z,2.05
2022-12-20T03:28:32.291Z,1.00
2022-12-20T03:30:59.382Z,0.73
2022-12-20T03:33:26.454Z,0.70
2022-12-20T03:35:54.547Z,1.63
2022-12-20T03:38:21.589Z,3.00
2022-12-20T03:40:48.472Z,1.65
2022-12-20T03:43:19.385Z,1.45
2022-12-20T03:45:46.332Z,1.45
2022-12-20T03:48:13.225Z,1.40
2022-12-20T03:50:40.122Z,0.95
2022-12-20T03:53:08.202Z,1.70
2022-12-20T03:55:35.118Z,0.80
2022-12-20T03:58:02.369Z,0.65
2022-12-20T04:03:20.553Z,1.92
2022-12-20T04:05:47.522Z,1.20
2022-12-20T04:08:14.393Z,1.50
2022-12-20T04:11:00.180Z,1.13
2022-12-20T04:13:32.354Z,2.08
2022-12-20T04:16:00.978Z,0.88
2022-12-20T04:18:32.376Z,3.22
2022-12-20T04:21:01.508Z,1.05
2022-12-20T04:23:31.223Z,2.38
2022-12-20T04:25:58.975Z,1.58
2022-12-20T04:28:26.170Z,1.90
2022-12-20T04:30:55.008Z,0.88
2022-12-20T04:33:26.640Z,1.25
2022-12-20T04:35:54.878Z,0.95
2022-12-20T04:38:24.190Z,1.58
2022-12-20T04:40:54.962Z,1.52
2022-12-20T04:43:24.616Z,2.15
2022-12-20T04:45:56.616Z,1.65
2022-12-20T04:51:14.494Z,1.80
2022-12-20T04:53:49.455Z,2.10
2022-12-20T04:56:48.924Z,1.38
2022-12-20T04:59:20.521Z,1.73
2022-12-20T05:01:50.761Z,1.50
2022-12-20T05:04:37.484Z,1.77
2022-12-20T05:07:05.453Z,1.42
2022-12-20T05:09:33.402Z,2.13
2022-12-20T06:06:40.436Z,2.17
2022-12-20T06:09:08.860Z,2.25
2022-12-20T06:11:44.521Z,1.30
2022-12-20T06:14:52.239Z,2.70
2022-12-20T06:17:22.129Z,1.95
2022-12-20T06:19:51.664Z,1.52
2022-12-20T06:22:19.922Z,2.25
2022-12-20T06:24:55.712Z,1.92
2022-12-20T06:30:33.366Z,2.08
2022-12-20T06:33:15.774Z,0.90
2022-12-20T06:35:43.190Z,1.98
2022-12-20T06:38:10.981Z,1.30
2022-12-20T06:40:38.828Z,1.10
2022-12-20T06:43:06.309Z,0.80
2022-12-20T06:45:39.464Z,1.00
2022-12-20T06:48:10.314Z,1.30
2022-12-20T06:50:41.594Z,1.52
2022-12-20T06:53:09.324Z,1.15
2022-12-20T06:55:36.664Z,1.20
2022-12-20T06:58:04.514Z,0.90
2022-12-20T07:00:32.696Z,1.95
2022-12-20T07:03:00.523Z,1.52
2022-12-20T07:05:28.303Z,2.05
2022-12-20T07:07:55.928Z,1.00
2022-12-20T07:10:23.325Z,1.13
2022-12-20T07:12:52.498Z,1.27
2022-12-20T07:15:19.983Z,1.60
2022-12-20T07:17:47.789Z,1.85
2022-12-20T07:20:15.707Z,0.85
2022-12-20T07:22:43.552Z,1.35
2022-12-20T07:25:11.748Z,1.27
2022-12-20T07:27:39.099Z,1.10
2022-12-20T07:30:08.340Z,0.88
2022-12-20T07:32:35.860Z,1.77
2022-12-20T07:35:02.979Z,0.85
2022-12-20T07:37:30.669Z,1.02
2022-12-20T07:39:57.780Z,1.13
2022-12-20T07:42:29.055Z,1.55
2022-12-20T07:45:02.666Z,0.90
2022-12-20T07:47:30.256Z,1.05
2022-12-20T07:49:57.319Z,1.65
2022-12-20T07:52:29.303Z,1.48
2022-12-20T07:55:01.585Z,1.25
2022-12-20T07:57:34.470Z,1.80
2022-12-20T08:00:03.592Z,1.38
2022-12-20T08:02:49.413Z,1.15
2022-12-20T08:05:18.191Z,0.68
2022-12-20T08:07:47.088Z,1.40
2022-12-20T08:10:16.119Z,1.00
2022-12-20T08:12:45.489Z,1.30
2022-12-20T08:15:13.073Z,1.13
2022-12-20T08:17:40.336Z,1.13
2022-12-20T08:20:08.879Z,1.30
2022-12-20T08:22:36.439Z,1.52
2022-12-20T08:25:04.965Z,1.38
2022-12-20T08:27:32.226Z,2.10
2022-12-20T08:29:59.310Z,1.40
2022-12-20T08:32:26.719Z,1.55
2022-12-20T08:34:54.593Z,1.40
2022-12-20T08:37:21.649Z,0.93
2022-12-20T08:39:48.745Z,1.80
2022-12-20T08:42:15.879Z,1.77
2022-12-20T08:44:44.099Z,1.75
2022-12-20T08:47:11.440Z,1.52
2022-12-20T08:49:44.013Z,1.50
2022-12-20T08:52:14.452Z,2.03
2022-12-20T08:54:41.375Z,1.50
2022-12-20T08:57:08.763Z,1.17
2022-12-20T08:59:36.103Z,1.23
2022-12-20T09:02:03.415Z,1.58
2022-12-20T09:04:30.561Z,1.70
2022-12-20T09:06:57.838Z,1.58
2022-12-20T09:09:25.136Z,2.67
2022-12-20T09:11:52.597Z,1.40
2022-12-20T09:14:20.099Z,1.70
2022-12-20T09:16:47.791Z,0.85
2022-12-20T09:19:16.966Z,1.75
2022-12-20T09:21:44.094Z,1.77
2022-12-20T09:24:11.369Z,1.70
2022-12-20T09:26:39.012Z,1.38
2022-12-20T09:29:06.345Z,1.05
2022-12-20T09:31:33.708Z,1.27
2022-12-20T09:34:01.532Z,1.13
2022-12-20T09:36:30.144Z,1.50
2022-12-20T09:38:57.406Z,1.17
2022-12-20T09:41:39.588Z,0.93
2022-12-20T09:44:12.684Z,2.13
2022-12-20T09:46:41.497Z,0.85
2022-12-20T09:49:16.503Z,1.35
2022-12-20T09:52:05.312Z,1.55
2022-12-20T09:54:41.213Z,1.60
2022-12-20T09:57:32.193Z,1.52
2022-12-20T09:59:59.167Z,1.75
2022-12-20T10:05:25.918Z,2.08
2022-12-20T10:07:55.722Z,0.77
2022-12-20T10:10:35.795Z,1.55
2022-12-20T10:13:22.842Z,1.17
2022-12-20T10:15:55.542Z,1.27
2022-12-20T10:21:11.085Z,1.75
2022-12-20T10:23:51.556Z,1.23
2022-12-20T10:26:18.843Z,1.65
2022-12-20T10:28:50.670Z,2.03
2022-12-20T12:48:40.028Z,0.73
2022-12-20T12:51:07.331Z,1.52
2022-12-20T12:56:46.452Z,0.95
2022-12-20T12:59:33.657Z,1.27
2022-12-20T13:02:04.513Z,1.20
2022-12-20T13:05:01.376Z,1.13
2022-12-20T13:07:35.482Z,1.67
2022-12-20T13:10:30.387Z,3.00
2022-12-20T13:13:00.335Z,2.28
2022-12-20T13:15:27.532Z,2.33
2022-12-20T13:18:11.077Z,1.60
2022-12-20T13:20:38.987Z,1.83
2022-12-20T13:23:15.031Z,0.95
2022-12-20T13:25:45.974Z,1.85
2022-12-20T13:28:16.941Z,1.52
2022-12-20T13:30:46.031Z,1.27
2022-12-20T13:33:37.588Z,2.40
2022-12-20T13:36:34.236Z,1.05
2022-12-20T13:39:23.348Z,1.45
2022-12-20T13:42:21.167Z,1.15
2022-12-20T13:44:51.046Z,1.25
2022-12-20T13:47:32.332Z,1.05
2022-12-20T13:50:22.916Z,1.30
2022-12-20T13:52:51.441Z,1.58
2022-12-20T13:55:37.220Z,1.40
2022-12-20T13:58:26.476Z,0.70
2022-12-20T14:01:03.866Z,1.55
2022-12-20T14:03:32.004Z,2.25
2022-12-20T14:06:04.322Z,1.23
2022-12-20T14:08:34.854Z,1.58
2022-12-20T14:11:13.605Z,1.48
2022-12-20T14:13:41.962Z,0.88
2022-12-20T14:16:17.122Z,1.45
2022-12-20T14:19:12.912Z,1.45
2022-12-20T14:21:43.892Z,1.73
2022-12-20T14:24:18.411Z,1.58
2022-12-20T14:26:51.982Z,0.63
2022-12-20T14:29:28.151Z,2.00
2022-12-20T14:31:55.337Z,1.17
2022-12-20T14:34:29.839Z,1.25
2022-12-20T14:37:19.431Z,1.55
2022-12-20T14:40:11.543Z,1.08
2022-12-20T14:42:40.924Z,1.03
2022-12-20T14:45:10.686Z,2.10
2022-12-20T14:47:40.654Z,0.90
2022-12-20T14:50:19.256Z,1.65
2022-12-20T14:52:46.645Z,1.55
2022-12-20T14:55:25.478Z,1.42
2022-12-20T14:57:57.047Z,1.23
2022-12-20T15:00:32.524Z,1.73
2022-12-20T15:03:06.275Z,1.33
2022-12-20T15:05:37.452Z,1.00
2022-12-20T15:08:33.191Z,1.52
2022-12-20T15:11:09.735Z,1.50
2022-12-20T15:13:42.555Z,1.38
2022-12-20T15:16:21.922Z,2.05
2022-12-20T15:18:50.568Z,1.65
2022-12-20T15:21:29.530Z,2.13
2022-12-20T15:23:58.358Z,1.85
2022-12-20T15:26:27.588Z,2.38
2022-12-20T15:28:55.340Z,2.15
2022-12-20T15:31:30.819Z,2.00
2022-12-20T15:34:02.512Z,2.95
2022-12-20T15:36:30.466Z,1.85
2022-12-20T15:39:14.941Z,1.58
2022-12-20T15:41:46.518Z,2.30
2022-12-20T15:44:17.633Z,2.92
2022-12-20T15:46:44.881Z,2.22
2022-12-20T15:49:18.186Z,1.73
2022-12-20T15:51:47.147Z,2.20
2022-12-20T15:54:28.078Z,2.55
2022-12-20T15:56:56.775Z,1.77
2022-12-20T15:59:57.817Z,1.58
2022-12-20T16:02:31.173Z,2.72
2022-12-20T16:04:59.300Z,1.58
2022-12-20T16:07:26.583Z,2.05
2022-12-20T16:09:54.275Z,2.72
2022-12-20T16:12:34.809Z,3.13
2022-12-20T16:15:02.057Z,2.03
2022-12-20T16:17:29.036Z,1.35
2022-12-20T16:19:56.038Z,2.28
2022-12-20T16:22:24.460Z,2.13
2022-12-20T16:24:52.165Z,1.48
2022-12-20T16:27:19.434Z,2.65
2022-12-20T16:29:46.356Z,2.70
2022-12-20T16:32:19.296Z,2.70
2022-12-20T16:34:46.429Z,2.63
2022-12-20T16:37:14.173Z,2.45
2022-12-20T16:39:42.320Z,1.42
2022-12-20T16:42:14.951Z,2.28
2022-12-20T16:44:45.119Z,2.38
2022-12-20T16:47:12.923Z,1.95
2022-12-20T16:49:43.348Z,2.28
2022-12-20T16:52:18.804Z,3.70
2022-12-20T16:54:45.957Z,2.65
2022-12-20T16:57:13.082Z,1.83
2022-12-20T16:59:40.083Z,3.17
2022-12-20T17:02:29.917Z,2.40
2022-12-20T17:04:57.619Z,2.28
2022-12-20T17:07:24.600Z,2.53
2022-12-20T17:09:51.977Z,2.40
2022-12-20T17:12:21.227Z,2.50
2022-12-20T17:14:49.251Z,2.72
2022-12-20T17:17:19.261Z,3.05
2022-12-20T17:19:46.370Z,2.38
2022-12-20T17:24:59.211Z,2.38
2022-12-20T17:27:26.207Z,1.35
2022-12-20T17:29:53.116Z,2.33
2022-12-20T17:32:22.447Z,3.10
2022-12-20T17:34:49.718Z,2.10
2022-12-20T17:37:18.151Z,1.95
2022-12-20T17:39:45.218Z,2.75
2022-12-20T17:42:13.804Z,1.88
2022-12-20T17:44:40.644Z,2.28
2022-12-20T17:47:07.474Z,3.50
2022-12-20T17:49:34.427Z,1.85
2022-12-20T17:52:01.374Z,2.25
2022-12-20T17:54:34.952Z,2.50
2022-12-20T17:57:06.030Z,2.17
2022-12-20T17:59:32.959Z,2.67
2022-12-20T18:02:00.283Z,2.40
2022-12-20T18:04:27.314Z,2.35
2022-12-20T18:06:54.345Z,2.47
2022-12-20T18:09:21.887Z,2.55
2022-12-20T18:11:49.348Z,1.98
2022-12-20T20:13:11.552Z,2.65
2022-12-20T20:15:37.919Z,1.63
2022-12-20T20:18:03.924Z,2.92
2022-12-20T20:24:24.960Z,2.33
2022-12-20T20:26:52.073Z,3.15
2022-12-20T20:29:19.127Z,3.03
2022-12-20T20:31:46.427Z,4.00
2022-12-20T20:34:13.667Z,3.00
2022-12-20T20:36:40.980Z,4.32
2022-12-20T20:39:08.079Z,3.35
2022-12-20T20:41:35.288Z,4.03
2022-12-20T20:44:02.422Z,3.63
2022-12-20T20:46:29.691Z,2.50
2022-12-20T20:48:56.978Z,3.75
2022-12-20T20:51:23.959Z,1.90
2022-12-20T20:53:50.976Z,2.70
2022-12-20T20:56:17.835Z,2.78
2022-12-20T20:58:45.018Z,1.35
2022-12-20T21:01:12.020Z,3.17
2022-12-20T21:03:40.199Z,2.53
2022-12-20T21:08:55.421Z,3.63
2022-12-20T21:11:22.973Z,3.22
2022-12-20T21:13:50.544Z,4.30
2022-12-20T21:16:22.681Z,3.05
2022-12-20T21:18:54.463Z,4.15
2022-12-20T21:21:21.669Z,2.88
2022-12-20T21:23:49.091Z,3.08
2022-12-20T21:26:17.734Z,3.63
2022-12-20T21:28:45.621Z,5.25
2022-12-20T21:31:15.143Z,3.80
2022-12-20T21:33:42.666Z,4.25
2022-12-20T21:36:16.226Z,3.95
2022-12-20T21:38:48.117Z,4.50
2022-12-20T21:41:15.381Z,4.78
2022-12-20T21:43:42.500Z,4.60
2022-12-20T21:46:13.027Z,4.38
2022-12-20T21:48:43.153Z,6.43
2022-12-20T21:51:22.453Z,5.07
2022-12-20T21:54:05.262Z,5.00
2022-12-20T21:56:34.417Z,4.90
2022-12-20T21:59:02.798Z,4.68
2022-12-20T22:01:30.779Z,4.57
2022-12-20T22:04:01.535Z,4.15
2022-12-20T22:06:28.852Z,5.28
2022-12-20T22:09:00.175Z,4.65
2022-12-20T22:11:27.853Z,4.43
2022-12-20T22:13:55.931Z,4.57
2022-12-20T22:16:25.831Z,3.03
2022-12-20T22:18:54.823Z,5.05
2022-12-20T22:21:24.378Z,3.20
2022-12-20T22:23:51.330Z,3.80
2022-12-20T22:26:21.651Z,4.20
2022-12-20T22:28:50.789Z,4.93
2022-12-20T22:31:18.930Z,4.65
2022-12-20T22:33:46.207Z,5.13
2022-12-20T22:36:15.552Z,4.15
2022-12-20T22:38:46.276Z,5.30
2022-12-20T22:41:18.978Z,3.78
2022-12-20T22:46:15.166Z,5.80
2022-12-20T22:48:42.747Z,3.63
2022-12-20T22:51:15.336Z,3.72
2022-12-20T22:53:42.762Z,3.67
2022-12-20T22:56:10.843Z,4.75
2022-12-20T22:58:39.324Z,3.10
2022-12-20T23:01:09.043Z,3.05
2022-12-20T23:03:37.299Z,4.65
2022-12-20T23:06:06.444Z,2.25
2022-12-20T23:08:36.266Z,2.38
2022-12-20T23:11:30.504Z,3.08
2022-12-20T23:14:16.030Z,3.08
2022-12-20T23:16:42.889Z,2.40
2022-12-20T23:19:10.017Z,2.92
2022-12-20T23:22:15.253Z,3.03
2022-12-20T23:24:42.191Z,4.00
2022-12-20T23:27:09.117Z,2.00
2022-12-20T23:29:35.983Z,2.47
2022-12-20T23:32:02.820Z,2.30
2022-12-20T23:34:29.853Z,2.72
2022-12-20T23:36:56.848Z,2.55
2022-12-20T23:39:23.681Z,5.03
2022-12-20T23:41:50.503Z,2.53
2022-12-20T23:44:17.224Z,4.40
2022-12-20T23:46:43.994Z,5.20
2022-12-20T23:49:10.995Z,4.05
2022-12-20T23:51:38.127Z,4.15
2022-12-20T23:54:05.331Z,5.43
2022-12-20T23:56:32.098Z,4.68
2022-12-20T23:58:59.075Z,4.38
